sensor_id;sensor_type;location;lat;lon;timestamp;temperature;humidity
17986;DHT22;9118;48.122;11.546;2023-02-27T00:00:48;0.90;99.90
17986;DHT22;9118;48.122;11.546;2023-02-27T00:03:15;0.70;99.90
17986;DHT22;9118;48.122;11.546;2023-02-27T00:05:42;0.60;99.90
17986;DHT22;9118;48.122;11.546;2023-02-27T00:08:11;1.50;99.90
17986;DHT22;9118;48.122;11.546;2023-02-27T00:10:37;1.40;99.90
17986;DHT22;9118;48.122;11.546;2023-02-27T00:13:05;2.30;99.90
17986;DHT22;9118;48.122;11.546;2023-02-27T00:15:32;2.30;99.90
17986;DHT22;9118;48.122;11.546;2023-02-27T00:18:03;0.80;99.90
17986;DHT22;9118;48.122;11.546;2023-02-27T00:20:30;1.20;99.90
17986;DHT22;9118;48.122;11.546;2023-02-27T00:23:02;1.70;99.90
17986;DHT22;9118;48.122;11.546;2023-02-27T00:25:31;1.00;99.90
17986;DHT22;9118;48.122;11.546;2023-02-27T00:27:59;0.50;99.90
17986;DHT22;9118;48.122;11.546;2023-02-27T00:30:26;1.70;99.90
17986;DHT22;9118;48.122;11.546;2023-02-27T00:32:54;1.40;99.90
17986;DHT22;9118;48.122;11.546;2023-02-27T00:35:21;0.70;99.90
17986;DHT22;9118;48.122;11.546;2023-02-27T00:37:48;0.60;99.90
17986;DHT22;9118;48.122;11.546;2023-02-27T00:40:16;0.70;99.90
17986;DHT22;9118;48.122;11.546;2023-02-27T00:42:44;0.60;99.90
17986;DHT22;9118;48.122;11.546;2023-02-27T00:45:13;1.30;99.90
17986;DHT22;9118;48.122;11.546;2023-02-27T00:47:40;1.30;99.90
17986;DHT22;9118;48.122;11.546;2023-02-27T00:50:08;0.70;99.90
17986;DHT22;9118;48.122;11.546;2023-02-27T00:52:37;0.50;99.90
17986;DHT22;9118;48.122;11.546;2023-02-27T00:55:04;0.60;99.90
17986;DHT22;9118;48.122;11.546;2023-02-27T00:57:31;0.50;99.90
17986;DHT22;9118;48.122;11.546;2023-02-27T01:00:00;0.90;99.90
17986;DHT22;9118;48.122;11.546;2023-02-27T01:02:26;0.60;99.90
17986;DHT22;9118;48.122;11.546;2023-02-27T01:04:53;0.90;99.90
17986;DHT22;9118;48.122;11.546;2023-02-27T01:07:20;0.80;99.90
17986;DHT22;9118;48.122;11.546;2023-02-27T01:09:47;1.30;99.90
17986;DHT22;9118;48.122;11.546;2023-02-27T01:12:14;1.30;99.90
17986;DHT22;9118;48.122;11.546;2023-02-27T01:14:41;0.60;99.90
17986;DHT22;9118;48.122;11.546;2023-02-27T01:17:12;0.30;99.90
17986;DHT22;9118;48.122;11.546;2023-02-27T01:19:39;1.30;99.90
17986;DHT22;9118;48.122;11.546;2023-02-27T01:22:06;1.20;99.90
17986;DHT22;9118;48.122;11.546;2023-02-27T01:24:33;0.80;99.90
17986;DHT22;9118;48.122;11.546;2023-02-27T01:27:00;1.30;99.90
17986;DHT22;9118;48.122;11.546;2023-02-27T01:29:27;1.20;99.90
17986;DHT22;9118;48.122;11.546;2023-02-27T01:31:54;1.30;99.90
17986;DHT22;9118;48.122;11.546;2023-02-27T01:34:22;0.50;99.90
17986;DHT22;9118;48.122;11.546;2023-02-27T01:36:49;0.50;99.90
17986;DHT22;9118;48.122;11.546;2023-02-27T01:39:16;0.50;99.90
17986;DHT22;9118;48.122;11.546;2023-02-27T01:41:43;0.30;99.90
17986;DHT22;9118;48.122;11.546;2023-02-27T01:44:12;1.00;99.90
17986;DHT22;9118;48.122;11.546;2023-02-27T01:46:41;0.80;99.90
17986;DHT22;9118;48.122;11.546;2023-02-27T01:49:13;0.70;99.90
17986;DHT22;9118;48.122;11.546;2023-02-27T01:51:45;1.10;99.90
17986;DHT22;9118;48.122;11.546;2023-02-27T01:54:16;1.20;99.90
17986;DHT22;9118;48.122;11.546;2023-02-27T01:56:45;1.30;99.90
17986;DHT22;9118;48.122;11.546;2023-02-27T01:59:13;0.40;99.90
17986;DHT22;9118;48.122;11.546;2023-02-27T02:01:41;1.00;99.90
17986;DHT22;9118;48.122;11.546;2023-02-27T02:04:13;1.20;99.90
17986;DHT22;9118;48.122;11.546;2023-02-27T02:06:45;0.30;99.90
17986;DHT22;9118;48.122;11.546;2023-02-27T02:09:16;0.50;99.90
17986;DHT22;9118;48.122;11.546;2023-02-27T02:11:44;0.70;99.90
17986;DHT22;9118;48.122;11.546;2023-02-27T02:14:11;0.40;99.90
17986;DHT22;9118;48.122;11.546;2023-02-27T02:16:46;0.80;99.90
17986;DHT22;9118;48.122;11.546;2023-02-27T02:22:43;0.30;99.90
17986;DHT22;9118;48.122;11.546;2023-02-27T02:25:40;0.30;99.90
17986;DHT22;9118;48.122;11.546;2023-02-27T02:28:23;0.50;99.90
17986;DHT22;9118;48.122;11.546;2023-02-27T02:31:31;1.00;99.90
17986;DHT22;9118;48.122;11.546;2023-02-27T02:37:53;0.30;99.90
17986;DHT22;9118;48.122;11.546;2023-02-27T02:40:29;0.30;99.90
17986;DHT22;9118;48.122;11.546;2023-02-27T02:43:07;0.10;99.90
17986;DHT22;9118;48.122;11.546;2023-02-27T02:45:40;1.20;99.90
17986;DHT22;9118;48.122;11.546;2023-02-27T02:48:13;0.00;99.90
17986;DHT22;9118;48.122;11.546;2023-02-27T02:50:47;1.50;99.90
17986;DHT22;9118;48.122;11.546;2023-02-27T02:53:23;1.30;99.90
17986;DHT22;9118;48.122;11.546;2023-02-27T02:55:57;1.20;99.90
17986;DHT22;9118;48.122;11.546;2023-02-27T02:58:28;0.50;99.90
17986;DHT22;9118;48.122;11.546;2023-02-27T03:01:02;1.10;99.90
17986;DHT22;9118;48.122;11.546;2023-02-27T03:03:37;1.00;99.90
17986;DHT22;9118;48.122;11.546;2023-02-27T03:06:09;0.50;99.90
17986;DHT22;9118;48.122;11.546;2023-02-27T03:08:42;0.70;99.90
17986;DHT22;9118;48.122;11.546;2023-02-27T03:11:11;0.40;99.90
17986;DHT22;9118;48.122;11.546;2023-02-27T03:13:41;0.10;99.90
17986;DHT22;9118;48.122;11.546;2023-02-27T03:16:14;0.20;99.90
17986;DHT22;9118;48.122;11.546;2023-02-27T03:18:48;1.40;99.90
17986;DHT22;9118;48.122;11.546;2023-02-27T03:21:21;1.60;99.90
17986;DHT22;9118;48.122;11.546;2023-02-27T03:23:51;0.60;99.90
17986;DHT22;9118;48.122;11.546;2023-02-27T03:26:24;1.30;99.90
17986;DHT22;9118;48.122;11.546;2023-02-27T03:28:58;1.00;99.90
17986;DHT22;9118;48.122;11.546;2023-02-27T03:31:31;0.70;99.90
17986;DHT22;9118;48.122;11.546;2023-02-27T03:34:05;0.80;99.90
17986;DHT22;9118;48.122;11.546;2023-02-27T03:36:39;0.50;99.90
17986;DHT22;9118;48.122;11.546;2023-02-27T03:39:19;0.70;99.90
17986;DHT22;9118;48.122;11.546;2023-02-27T03:41:54;0.90;99.90
17986;DHT22;9118;48.122;11.546;2023-02-27T03:44:29;1.10;99.90
17986;DHT22;9118;48.122;11.546;2023-02-27T03:46:57;0.80;99.90
17986;DHT22;9118;48.122;11.546;2023-02-27T03:49:24;1.00;99.90
17986;DHT22;9118;48.122;11.546;2023-02-27T03:51:51;0.90;99.90
17986;DHT22;9118;48.122;11.546;2023-02-27T03:54:21;0.50;99.90
17986;DHT22;9118;48.122;11.546;2023-02-27T03:56:54;0.60;99.90
17986;DHT22;9118;48.122;11.546;2023-02-27T03:59:22;1.20;99.90
17986;DHT22;9118;48.122;11.546;2023-02-27T04:01:50;1.00;99.90
17986;DHT22;9118;48.122;11.546;2023-02-27T04:04:20;0.20;99.90
17986;DHT22;9118;48.122;11.546;2023-02-27T04:06:51;0.60;99.90
17986;DHT22;9118;48.122;11.546;2023-02-27T04:09:49;1.40;99.90
17986;DHT22;9118;48.122;11.546;2023-02-27T04:12:35;1.10;99.90
17986;DHT22;9118;48.122;11.546;2023-02-27T04:15:14;1.00;99.90
17986;DHT22;9118;48.122;11.546;2023-02-27T04:17:51;0.30;99.90
17986;DHT22;9118;48.122;11.546;2023-02-27T04:20:33;0.10;99.90
17986;DHT22;9118;48.122;11.546;2023-02-27T04:23:05;0.40;99.90
17986;DHT22;9118;48.122;11.546;2023-02-27T04:25:49;0.20;99.90
17986;DHT22;9118;48.122;11.546;2023-02-27T04:28:24;1.20;99.90
17986;DHT22;9118;48.122;11.546;2023-02-27T04:30:59;1.00;99.90
17986;DHT22;9118;48.122;11.546;2023-02-27T04:33:36;0.40;99.90
17986;DHT22;9118;48.122;11.546;2023-02-27T04:36:08;1.00;99.90
17986;DHT22;9118;48.122;11.546;2023-02-27T04:38:38;0.30;99.90
17986;DHT22;9118;48.122;11.546;2023-02-27T04:41:10;1.10;99.90
17986;DHT22;9118;48.122;11.546;2023-02-27T04:43:40;0.90;99.90
17986;DHT22;9118;48.122;11.546;2023-02-27T04:46:11;0.80;99.90
17986;DHT22;9118;48.122;11.546;2023-02-27T04:48:47;1.40;99.90
17986;DHT22;9118;48.122;11.546;2023-02-27T04:51:19;0.50;99.90
17986;DHT22;9118;48.122;11.546;2023-02-27T04:53:51;0.40;99.90
17986;DHT22;9118;48.122;11.546;2023-02-27T04:56:24;0.70;99.90
17986;DHT22;9118;48.122;11.546;2023-02-27T04:58:57;1.00;99.90
17986;DHT22;9118;48.122;11.546;2023-02-27T05:01:33;0.80;99.90
17986;DHT22;9118;48.122;11.546;2023-02-27T05:04:02;0.60;99.90
17986;DHT22;9118;48.122;11.546;2023-02-27T05:06:32;0.90;99.90
17986;DHT22;9118;48.122;11.546;2023-02-27T05:09:08;1.00;99.90
17986;DHT22;9118;48.122;11.546;2023-02-27T05:11:40;0.20;99.90
17986;DHT22;9118;48.122;11.546;2023-02-27T05:14:13;1.10;99.90
17986;DHT22;9118;48.122;11.546;2023-02-27T05:16:46;0.70;99.90
17986;DHT22;9118;48.122;11.546;2023-02-27T05:19:17;0.30;99.90
17986;DHT22;9118;48.122;11.546;2023-02-27T05:21:48;0.80;99.90
17986;DHT22;9118;48.122;11.546;2023-02-27T05:24:26;1.00;99.90
17986;DHT22;9118;48.122;11.546;2023-02-27T05:27:18;0.90;99.90
17986;DHT22;9118;48.122;11.546;2023-02-27T05:29:50;0.20;99.90
17986;DHT22;9118;48.122;11.546;2023-02-27T05:32:28;0.30;99.90
17986;DHT22;9118;48.122;11.546;2023-02-27T05:35:00;0.20;99.90
17986;DHT22;9118;48.122;11.546;2023-02-27T05:37:32;0.00;99.90
17986;DHT22;9118;48.122;11.546;2023-02-27T05:40:02;0.30;99.90
17986;DHT22;9118;48.122;11.546;2023-02-27T05:42:37;0.40;99.90
17986;DHT22;9118;48.122;11.546;2023-02-27T05:45:09;0.40;99.90
17986;DHT22;9118;48.122;11.546;2023-02-27T05:47:40;-0.10;99.90
17986;DHT22;9118;48.122;11.546;2023-02-27T05:50:13;0.90;99.90
17986;DHT22;9118;48.122;11.546;2023-02-27T05:52:42;0.00;99.90
17986;DHT22;9118;48.122;11.546;2023-02-27T05:55:14;0.90;99.90
17986;DHT22;9118;48.122;11.546;2023-02-27T05:57:45;0.90;99.90
17986;DHT22;9118;48.122;11.546;2023-02-27T06:00:17;1.50;99.90
17986;DHT22;9118;48.122;11.546;2023-02-27T06:02:46;-0.20;99.90
17986;DHT22;9118;48.122;11.546;2023-02-27T06:05:15;0.10;99.90
17986;DHT22;9118;48.122;11.546;2023-02-27T06:07:42;1.20;99.90
17986;DHT22;9118;48.122;11.546;2023-02-27T06:10:12;0.50;99.90
17986;DHT22;9118;48.122;11.546;2023-02-27T06:12:40;1.60;99.90
17986;DHT22;9118;48.122;11.546;2023-02-27T06:15:08;0.90;99.90
17986;DHT22;9118;48.122;11.546;2023-02-27T06:17:36;0.10;99.90
17986;DHT22;9118;48.122;11.546;2023-02-27T06:20:04;0.60;99.90
17986;DHT22;9118;48.122;11.546;2023-02-27T06:22:32;0.00;99.90
17986;DHT22;9118;48.122;11.546;2023-02-27T06:24:59;0.20;99.90
17986;DHT22;9118;48.122;11.546;2023-02-27T06:27:26;0.30;99.90
17986;DHT22;9118;48.122;11.546;2023-02-27T06:29:53;0.10;99.90
17986;DHT22;9118;48.122;11.546;2023-02-27T06:32:20;0.30;99.90
17986;DHT22;9118;48.122;11.546;2023-02-27T06:34:51;1.30;99.90
17986;DHT22;9118;48.122;11.546;2023-02-27T06:37:18;0.40;99.90
17986;DHT22;9118;48.122;11.546;2023-02-27T06:39:46;0.00;99.90
17986;DHT22;9118;48.122;11.546;2023-02-27T06:42:13;0.60;99.90
17986;DHT22;9118;48.122;11.546;2023-02-27T06:44:40;0.70;99.90
17986;DHT22;9118;48.122;11.546;2023-02-27T06:47:07;0.30;99.90
17986;DHT22;9118;48.122;11.546;2023-02-27T06:49:34;2.00;99.90
17986;DHT22;9118;48.122;11.546;2023-02-27T06:52:02;0.60;99.90
17986;DHT22;9118;48.122;11.546;2023-02-27T06:54:30;0.00;99.90
17986;DHT22;9118;48.122;11.546;2023-02-27T06:56:57;0.70;99.90
17986;DHT22;9118;48.122;11.546;2023-02-27T06:59:24;1.80;99.90
17986;DHT22;9118;48.122;11.546;2023-02-27T07:01:51;0.60;99.90
17986;DHT22;9118;48.122;11.546;2023-02-27T07:04:18;1.10;99.90
17986;DHT22;9118;48.122;11.546;2023-02-27T07:06:45;0.40;99.90
17986;DHT22;9118;48.122;11.546;2023-02-27T07:09:13;0.70;99.90
17986;DHT22;9118;48.122;11.546;2023-02-27T07:11:40;0.80;99.90
17986;DHT22;9118;48.122;11.546;2023-02-27T07:14:07;1.10;99.90
17986;DHT22;9118;48.122;11.546;2023-02-27T07:16:34;1.40;99.90
17986;DHT22;9118;48.122;11.546;2023-02-27T07:19:01;-0.50;99.90
17986;DHT22;9118;48.122;11.546;2023-02-27T07:21:28;0.90;99.90
17986;DHT22;9118;48.122;11.546;2023-02-27T07:23:55;1.30;99.90
17986;DHT22;9118;48.122;11.546;2023-02-27T07:26:24;1.00;99.90
17986;DHT22;9118;48.122;11.546;2023-02-27T07:28:50;0.90;99.90
17986;DHT22;9118;48.122;11.546;2023-02-27T07:31:17;1.10;99.90
17986;DHT22;9118;48.122;11.546;2023-02-27T07:33:45;1.70;99.90
17986;DHT22;9118;48.122;11.546;2023-02-27T07:36:12;2.00;99.90
17986;DHT22;9118;48.122;11.546;2023-02-27T07:38:39;0.50;99.90
17986;DHT22;9118;48.122;11.546;2023-02-27T07:41:06;1.70;99.90
17986;DHT22;9118;48.122;11.546;2023-02-27T07:43:35;2.50;99.90
17986;DHT22;9118;48.122;11.546;2023-02-27T07:46:02;1.80;99.90
17986;DHT22;9118;48.122;11.546;2023-02-27T07:48:29;1.80;99.90
17986;DHT22;9118;48.122;11.546;2023-02-27T07:50:56;2.50;99.90
17986;DHT22;9118;48.122;11.546;2023-02-27T07:53:23;2.10;99.90
17986;DHT22;9118;48.122;11.546;2023-02-27T07:55:50;1.60;99.90
17986;DHT22;9118;48.122;11.546;2023-02-27T07:58:17;1.70;99.90
17986;DHT22;9118;48.122;11.546;2023-02-27T08:00:46;0.70;99.90
17986;DHT22;9118;48.122;11.546;2023-02-27T08:03:13;2.90;99.90
17986;DHT22;9118;48.122;11.546;2023-02-27T08:05:40;1.90;99.90
17986;DHT22;9118;48.122;11.546;2023-02-27T08:08:06;1.80;99.90
17986;DHT22;9118;48.122;11.546;2023-02-27T08:10:33;3.00;99.90
17986;DHT22;9118;48.122;11.546;2023-02-27T08:13:00;2.00;99.90
17986;DHT22;9118;48.122;11.546;2023-02-27T08:15:27;2.60;99.90
17986;DHT22;9118;48.122;11.546;2023-02-27T08:17:58;2.10;99.90
17986;DHT22;9118;48.122;11.546;2023-02-27T08:20:25;1.60;99.90
17986;DHT22;9118;48.122;11.546;2023-02-27T08:22:52;2.40;99.90
17986;DHT22;9118;48.122;11.546;2023-02-27T08:25:19;3.10;99.90
17986;DHT22;9118;48.122;11.546;2023-02-27T08:27:47;2.30;99.90
17986;DHT22;9118;48.122;11.546;2023-02-27T08:30:14;3.10;99.90
17986;DHT22;9118;48.122;11.546;2023-02-27T08:32:41;2.30;99.90
17986;DHT22;9118;48.122;11.546;2023-02-27T08:35:11;2.90;99.90
17986;DHT22;9118;48.122;11.546;2023-02-27T08:37:38;2.50;99.90
17986;DHT22;9118;48.122;11.546;2023-02-27T08:40:06;4.00;99.90
17986;DHT22;9118;48.122;11.546;2023-02-27T08:42:35;2.80;99.90
17986;DHT22;9118;48.122;11.546;2023-02-27T08:45:02;3.40;99.90
17986;DHT22;9118;48.122;11.546;2023-02-27T08:47:29;3.10;99.90
17986;DHT22;9118;48.122;11.546;2023-02-27T08:49:56;2.90;99.90
17986;DHT22;9118;48.122;11.546;2023-02-27T08:52:25;3.00;99.90
17986;DHT22;9118;48.122;11.546;2023-02-27T08:54:52;2.90;99.90
17986;DHT22;9118;48.122;11.546;2023-02-27T08:57:19;3.20;99.90
17986;DHT22;9118;48.122;11.546;2023-02-27T08:59:46;4.30;99.90
17986;DHT22;9118;48.122;11.546;2023-02-27T09:02:13;2.90;99.90
17986;DHT22;9118;48.122;11.546;2023-02-27T09:04:40;2.80;99.90
17986;DHT22;9118;48.122;11.546;2023-02-27T09:07:08;3.90;99.90
17986;DHT22;9118;48.122;11.546;2023-02-27T09:09:36;3.50;99.90
17986;DHT22;9118;48.122;11.546;2023-02-27T09:12:04;3.80;99.90
17986;DHT22;9118;48.122;11.546;2023-02-27T09:14:31;2.90;99.90
17986;DHT22;9118;48.122;11.546;2023-02-27T09:16:58;3.70;99.90
17986;DHT22;9118;48.122;11.546;2023-02-27T09:19:25;3.40;99.90
17986;DHT22;9118;48.122;11.546;2023-02-27T09:21:52;3.10;99.90
17986;DHT22;9118;48.122;11.546;2023-02-27T09:24:20;3.40;99.90
17986;DHT22;9118;48.122;11.546;2023-02-27T09:26:48;3.90;99.90
17986;DHT22;9118;48.122;11.546;2023-02-27T09:29:16;3.60;99.90
17986;DHT22;9118;48.122;11.546;2023-02-27T09:31:43;3.60;99.90
17986;DHT22;9118;48.122;11.546;2023-02-27T09:34:10;3.70;99.90
17986;DHT22;9118;48.122;11.546;2023-02-27T09:36:37;4.80;99.90
17986;DHT22;9118;48.122;11.546;2023-02-27T09:39:04;4.00;99.90
17986;DHT22;9118;48.122;11.546;2023-02-27T09:44:34;3.60;99.90
17986;DHT22;9118;48.122;11.546;2023-02-27T09:47:02;3.40;99.90
17986;DHT22;9118;48.122;11.546;2023-02-27T09:49:33;3.10;99.90
17986;DHT22;9118;48.122;11.546;2023-02-27T09:52:04;3.00;99.90
17986;DHT22;9118;48.122;11.546;2023-02-27T09:54:32;4.50;99.90
17986;DHT22;9118;48.122;11.546;2023-02-27T09:57:02;4.10;99.90
17986;DHT22;9118;48.122;11.546;2023-02-27T09:59:34;3.20;99.90
17986;DHT22;9118;48.122;11.546;2023-02-27T10:02:17;4.00;99.90
17986;DHT22;9118;48.122;11.546;2023-02-27T10:04:50;3.70;99.90
17986;DHT22;9118;48.122;11.546;2023-02-27T10:07:23;2.60;99.90
17986;DHT22;9118;48.122;11.546;2023-02-27T10:10:02;3.70;99.90
17986;DHT22;9118;48.122;11.546;2023-02-27T10:12:44;4.20;99.90
17986;DHT22;9118;48.122;11.546;2023-02-27T10:15:24;4.70;99.90
17986;DHT22;9118;48.122;11.546;2023-02-27T10:17:55;4.90;99.90
17986;DHT22;9118;48.122;11.546;2023-02-27T10:20:27;4.30;99.90
17986;DHT22;9118;48.122;11.546;2023-02-27T10:22:58;5.20;99.90
17986;DHT22;9118;48.122;11.546;2023-02-27T10:25:26;4.20;99.90
17986;DHT22;9118;48.122;11.546;2023-02-27T10:27:59;4.60;99.90
17986;DHT22;9118;48.122;11.546;2023-02-27T10:30:29;5.80;99.90
17986;DHT22;9118;48.122;11.546;2023-02-27T10:33:00;4.60;99.90
17986;DHT22;9118;48.122;11.546;2023-02-27T10:35:33;4.30;99.90
17986;DHT22;9118;48.122;11.546;2023-02-27T10:38:03;4.30;99.90
17986;DHT22;9118;48.122;11.546;2023-02-27T10:40:34;4.20;99.90
17986;DHT22;9118;48.122;11.546;2023-02-27T10:43:02;4.00;99.90
17986;DHT22;9118;48.122;11.546;2023-02-27T10:45:31;4.20;99.90
17986;DHT22;9118;48.122;11.546;2023-02-27T10:48:01;4.30;99.90
17986;DHT22;9118;48.122;11.546;2023-02-27T10:50:30;4.60;99.90
17986;DHT22;9118;48.122;11.546;2023-02-27T10:53:00;4.30;99.90
17986;DHT22;9118;48.122;11.546;2023-02-27T10:55:29;4.20;99.90
17986;DHT22;9118;48.122;11.546;2023-02-27T10:57:58;4.10;99.90
17986;DHT22;9118;48.122;11.546;2023-02-27T11:00:39;4.00;99.90
17986;DHT22;9118;48.122;11.546;2023-02-27T11:03:17;4.60;99.90
17986;DHT22;9118;48.122;11.546;2023-02-27T11:05:52;4.20;99.90
17986;DHT22;9118;48.122;11.546;2023-02-27T11:08:22;3.80;99.90
17986;DHT22;9118;48.122;11.546;2023-02-27T11:10:59;3.90;99.90
17986;DHT22;9118;48.122;11.546;2023-02-27T11:13:28;3.90;99.90
17986;DHT22;9118;48.122;11.546;2023-02-27T11:16:07;4.00;99.90
17986;DHT22;9118;48.122;11.546;2023-02-27T11:18:38;4.00;99.90
17986;DHT22;9118;48.122;11.546;2023-02-27T11:21:11;3.90;99.90
17986;DHT22;9118;48.122;11.546;2023-02-27T11:23:52;4.10;99.90
17986;DHT22;9118;48.122;11.546;2023-02-27T11:26:24;4.30;99.90
17986;DHT22;9118;48.122;11.546;2023-02-27T11:29:21;4.30;99.90
17986;DHT22;9118;48.122;11.546;2023-02-27T11:31:53;4.20;99.90
17986;DHT22;9118;48.122;11.546;2023-02-27T11:34:29;4.60;99.90
17986;DHT22;9118;48.122;11.546;2023-02-27T11:37:03;3.70;99.90
17986;DHT22;9118;48.122;11.546;2023-02-27T11:39:35;3.90;99.90
17986;DHT22;9118;48.122;11.546;2023-02-27T11:42:15;3.80;99.90
17986;DHT22;9118;48.122;11.546;2023-02-27T11:44:52;3.60;99.90
17986;DHT22;9118;48.122;11.546;2023-02-27T11:47:26;2.40;99.90
17986;DHT22;9118;48.122;11.546;2023-02-27T11:56:07;4.00;99.90
17986;DHT22;9118;48.122;11.546;2023-02-27T11:58:39;5.30;99.90
17986;DHT22;9118;48.122;11.546;2023-02-27T12:01:14;4.20;99.90
17986;DHT22;9118;48.122;11.546;2023-02-27T12:03:50;4.20;99.90
17986;DHT22;9118;48.122;11.546;2023-02-27T12:06:20;3.90;99.90
17986;DHT22;9118;48.122;11.546;2023-02-27T12:08:53;4.10;99.90
17986;DHT22;9118;48.122;11.546;2023-02-27T12:11:24;4.60;99.90
17986;DHT22;9118;48.122;11.546;2023-02-27T12:13:57;4.10;99.90
17986;DHT22;9118;48.122;11.546;2023-02-27T12:16:30;4.30;99.90
17986;DHT22;9118;48.122;11.546;2023-02-27T12:19:04;2.60;99.90
17986;DHT22;9118;48.122;11.546;2023-02-27T12:21:38;4.10;99.90
17986;DHT22;9118;48.122;11.546;2023-02-27T12:24:11;4.90;99.90
17986;DHT22;9118;48.122;11.546;2023-02-27T12:26:42;4.40;99.90
17986;DHT22;9118;48.122;11.546;2023-02-27T12:29:16;4.30;99.90
17986;DHT22;9118;48.122;11.546;2023-02-27T12:31:48;4.30;99.90
17986;DHT22;9118;48.122;11.546;2023-02-27T12:34:24;4.40;99.90
17986;DHT22;9118;48.122;11.546;2023-02-27T12:36:55;4.90;99.90
17986;DHT22;9118;48.122;11.546;2023-02-27T12:39:23;4.40;99.90
17986;DHT22;9118;48.122;11.546;2023-02-27T12:45:08;4.50;99.90
17986;DHT22;9118;48.122;11.546;2023-02-27T12:47:41;4.40;99.90
17986;DHT22;9118;48.122;11.546;2023-02-27T12:50:16;4.60;99.90
17986;DHT22;9118;48.122;11.546;2023-02-27T12:52:59;5.00;99.90
17986;DHT22;9118;48.122;11.546;2023-02-27T12:55:30;4.40;99.90
17986;DHT22;9118;48.122;11.546;2023-02-27T12:58:17;4.50;99.90
17986;DHT22;9118;48.122;11.546;2023-02-27T13:00:52;4.50;99.90
17986;DHT22;9118;48.122;11.546;2023-02-27T13:03:27;4.60;99.90
17986;DHT22;9118;48.122;11.546;2023-02-27T13:06:00;4.60;99.90
17986;DHT22;9118;48.122;11.546;2023-02-27T13:08:48;5.10;99.90
17986;DHT22;9118;48.122;11.546;2023-02-27T13:11:23;4.70;99.90
17986;DHT22;9118;48.122;11.546;2023-02-27T13:13:55;4.70;99.90
17986;DHT22;9118;48.122;11.546;2023-02-27T13:16:28;4.90;99.90
17986;DHT22;9118;48.122;11.546;2023-02-27T13:19:03;5.70;99.90
17986;DHT22;9118;48.122;11.546;2023-02-27T13:21:37;4.90;99.90
17986;DHT22;9118;48.122;11.546;2023-02-27T13:24:18;4.90;99.90
17986;DHT22;9118;48.122;11.546;2023-02-27T13:26:52;5.30;99.90
17986;DHT22;9118;48.122;11.546;2023-02-27T13:29:21;5.00;99.90
17986;DHT22;9118;48.122;11.546;2023-02-27T13:31:56;5.00;99.90
17986;DHT22;9118;48.122;11.546;2023-02-27T13:34:29;5.00;99.90
17986;DHT22;9118;48.122;11.546;2023-02-27T13:37:01;5.00;99.90
17986;DHT22;9118;48.122;11.546;2023-02-27T13:39:51;5.20;99.90
17986;DHT22;9118;48.122;11.546;2023-02-27T13:45:50;5.20;99.90
17986;DHT22;9118;48.122;11.546;2023-02-27T13:48:37;4.80;99.90
17986;DHT22;9118;48.122;11.546;2023-02-27T13:51:08;4.80;99.90
17986;DHT22;9118;48.122;11.546;2023-02-27T13:53:37;4.80;99.90
17986;DHT22;9118;48.122;11.546;2023-02-27T13:56:19;4.70;99.90
17986;DHT22;9118;48.122;11.546;2023-02-27T13:58:53;4.70;99.90
17986;DHT22;9118;48.122;11.546;2023-02-27T14:01:24;5.10;99.90
17986;DHT22;9118;48.122;11.546;2023-02-27T14:03:53;4.70;99.90
17986;DHT22;9118;48.122;11.546;2023-02-27T14:06:24;5.50;99.90
17986;DHT22;9118;48.122;11.546;2023-02-27T14:08:54;5.00;99.90
17986;DHT22;9118;48.122;11.546;2023-02-27T14:11:24;5.50;99.90
17986;DHT22;9118;48.122;11.546;2023-02-27T14:14:05;4.90;99.90
17986;DHT22;9118;48.122;11.546;2023-02-27T14:16:55;4.10;99.90
17986;DHT22;9118;48.122;11.546;2023-02-27T14:25:23;4.80;99.90
17986;DHT22;9118;48.122;11.546;2023-02-27T14:27:53;4.80;99.90
17986;DHT22;9118;48.122;11.546;2023-02-27T14:30:34;5.10;99.90
17986;DHT22;9118;48.122;11.546;2023-02-27T14:33:16;4.80;99.90
17986;DHT22;9118;48.122;11.546;2023-02-27T14:35:54;4.60;99.90
17986;DHT22;9118;48.122;11.546;2023-02-27T14:38:23;4.50;99.90
17986;DHT22;9118;48.122;11.546;2023-02-27T14:41:02;4.80;99.90
17986;DHT22;9118;48.122;11.546;2023-02-27T14:43:36;4.40;99.90
17986;DHT22;9118;48.122;11.546;2023-02-27T14:46:06;4.50;99.90
17986;DHT22;9118;48.122;11.546;2023-02-27T14:48:36;3.70;99.90
17986;DHT22;9118;48.122;11.546;2023-02-27T14:51:06;4.50;99.90
17986;DHT22;9118;48.122;11.546;2023-02-27T14:53:33;4.40;99.90
17986;DHT22;9118;48.122;11.546;2023-02-27T14:56:02;4.50;99.90
17986;DHT22;9118;48.122;11.546;2023-02-27T14:58:29;4.40;99.90
17986;DHT22;9118;48.122;11.546;2023-02-27T15:01:01;4.80;99.90
17986;DHT22;9118;48.122;11.546;2023-02-27T15:03:36;4.10;99.90
17986;DHT22;9118;48.122;11.546;2023-02-27T15:06:16;4.60;99.90
17986;DHT22;9118;48.122;11.546;2023-02-27T15:08:46;4.70;99.90
17986;DHT22;9118;48.122;11.546;2023-02-27T15:11:22;4.60;99.90
17986;DHT22;9118;48.122;11.546;2023-02-27T15:13:58;4.90;99.90
17986;DHT22;9118;48.122;11.546;2023-02-27T15:16:34;4.30;99.90
17986;DHT22;9118;48.122;11.546;2023-02-27T15:19:14;4.20;99.90
17986;DHT22;9118;48.122;11.546;2023-02-27T15:21:45;4.50;99.90
17986;DHT22;9118;48.122;11.546;2023-02-27T15:24:33;3.90;99.90
17986;DHT22;9118;48.122;11.546;2023-02-27T15:27:06;3.90;99.90
17986;DHT22;9118;48.122;11.546;2023-02-27T15:29:39;5.40;99.90
17986;DHT22;9118;48.122;11.546;2023-02-27T15:32:13;3.90;99.90
17986;DHT22;9118;48.122;11.546;2023-02-27T15:34:42;3.70;99.90
17986;DHT22;9118;48.122;11.546;2023-02-27T15:37:15;3.60;99.90
17986;DHT22;9118;48.122;11.546;2023-02-27T15:39:45;3.60;99.90
17986;DHT22;9118;48.122;11.546;2023-02-27T15:42:24;4.60;99.90
17986;DHT22;9118;48.122;11.546;2023-02-27T15:44:52;3.70;99.90
17986;DHT22;9118;48.122;11.546;2023-02-27T15:47:30;3.60;99.90
17986;DHT22;9118;48.122;11.546;2023-02-27T15:50:22;3.50;99.90
17986;DHT22;9118;48.122;11.546;2023-02-27T15:52:51;3.40;99.90
17986;DHT22;9118;48.122;11.546;2023-02-27T15:55:22;3.40;99.90
17986;DHT22;9118;48.122;11.546;2023-02-27T15:57:51;3.50;99.90
17986;DHT22;9118;48.122;11.546;2023-02-27T16:00:20;3.40;99.90
17986;DHT22;9118;48.122;11.546;2023-02-27T16:02:51;3.90;99.90
17986;DHT22;9118;48.122;11.546;2023-02-27T16:05:21;3.10;99.90
17986;DHT22;9118;48.122;11.546;2023-02-27T16:07:49;3.30;99.90
17986;DHT22;9118;48.122;11.546;2023-02-27T16:10:19;3.50;99.90
17986;DHT22;9118;48.122;11.546;2023-02-27T16:12:47;3.30;99.90
17986;DHT22;9118;48.122;11.546;2023-02-27T16:15:28;3.50;99.90
17986;DHT22;9118;48.122;11.546;2023-02-27T16:18:01;3.00;99.90
17986;DHT22;9118;48.122;11.546;2023-02-27T16:20:38;3.10;99.90
17986;DHT22;9118;48.122;11.546;2023-02-27T16:23:12;2.90;99.90
17986;DHT22;9118;48.122;11.546;2023-02-27T16:25:41;2.90;99.90
17986;DHT22;9118;48.122;11.546;2023-02-27T16:28:11;3.20;99.90
17986;DHT22;9118;48.122;11.546;2023-02-27T16:30:42;2.80;99.90
17986;DHT22;9118;48.122;11.546;2023-02-27T16:33:18;2.80;99.90
17986;DHT22;9118;48.122;11.546;2023-02-27T16:35:48;2.70;99.90
17986;DHT22;9118;48.122;11.546;2023-02-27T16:38:16;2.70;99.90
17986;DHT22;9118;48.122;11.546;2023-02-27T16:40:43;3.30;99.90